sensor_id;sensor_type;location;lat;lon;timestamp;pressure;altitude;pressure_sealevel;temperature;humidity
54978;BME280;40873;47.522;19.106;2023-01-16T00:01:51;99709.78;;;4.78;100.00
54978;BME280;40873;47.522;19.106;2023-01-16T00:04:18;99717.50;;;4.81;100.00
54978;BME280;40873;47.522;19.106;2023-01-16T00:06:45;99718.91;;;4.70;100.00
54978;BME280;40873;47.522;19.106;2023-01-16T00:09:12;99711.97;;;4.68;100.00
54978;BME280;40873;47.522;19.106;2023-01-16T00:11:40;99694.47;;;4.71;100.00
54978;BME280;40873;47.522;19.106;2023-01-16T00:14:06;99709.09;;;4.75;100.00
54978;BME280;40873;47.522;19.106;2023-01-16T00:16:33;99703.00;;;4.74;100.00
54978;BME280;40873;47.522;19.106;2023-01-16T00:19:00;99714.31;;;4.75;100.00
54978;BME280;40873;47.522;19.106;2023-01-16T00:21:28;99709.69;;;4.80;100.00
54978;BME280;40873;47.522;19.106;2023-01-16T00:23:56;99702.50;;;4.85;100.00
54978;BME280;40873;47.522;19.106;2023-01-16T00:26:26;99704.06;;;4.89;100.00
54978;BME280;40873;47.522;19.106;2023-01-16T00:28:54;99692.22;;;4.99;100.00
54978;BME280;40873;47.522;19.106;2023-01-16T00:31:21;99696.78;;;4.95;100.00
54978;BME280;40873;47.522;19.106;2023-01-16T00:33:54;99701.72;;;5.02;100.00
54978;BME280;40873;47.522;19.106;2023-01-16T00:36:21;99697.34;;;5.02;100.00
54978;BME280;40873;47.522;19.106;2023-01-16T00:38:48;99694.91;;;4.98;100.00
54978;BME280;40873;47.522;19.106;2023-01-16T00:41:16;99692.88;;;4.85;100.00
54978;BME280;40873;47.522;19.106;2023-01-16T00:43:42;99682.44;;;4.85;100.00
54978;BME280;40873;47.522;19.106;2023-01-16T00:46:10;99683.44;;;4.83;100.00
54978;BME280;40873;47.522;19.106;2023-01-16T00:48:36;99684.66;;;4.76;100.00
54978;BME280;40873;47.522;19.106;2023-01-16T00:51:04;99682.66;;;4.81;100.00
54978;BME280;40873;47.522;19.106;2023-01-16T00:53:31;99696.59;;;4.81;100.00
54978;BME280;40873;47.522;19.106;2023-01-16T00:55:58;99692.84;;;4.87;100.00
54978;BME280;40873;47.522;19.106;2023-01-16T00:58:25;99692.69;;;4.90;100.00
54978;BME280;40873;47.522;19.106;2023-01-16T01:00:52;99685.00;;;4.87;100.00
54978;BME280;40873;47.522;19.106;2023-01-16T01:03:19;99677.06;;;4.88;100.00
54978;BME280;40873;47.522;19.106;2023-01-16T01:05:46;99677.38;;;4.82;100.00
54978;BME280;40873;47.522;19.106;2023-01-16T01:08:13;99678.13;;;4.84;100.00
54978;BME280;40873;47.522;19.106;2023-01-16T01:10:40;99671.13;;;4.85;100.00
54978;BME280;40873;47.522;19.106;2023-01-16T01:13:07;99684.91;;;4.88;100.00
54978;BME280;40873;47.522;19.106;2023-01-16T01:15:34;99677.44;;;4.81;100.00
54978;BME280;40873;47.522;19.106;2023-01-16T01:18:01;99671.50;;;4.77;100.00
54978;BME280;40873;47.522;19.106;2023-01-16T01:20:28;99669.44;;;4.84;100.00
54978;BME280;40873;47.522;19.106;2023-01-16T01:22:55;99666.91;;;4.82;100.00
54978;BME280;40873;47.522;19.106;2023-01-16T01:25:23;99665.59;;;4.74;100.00
54978;BME280;40873;47.522;19.106;2023-01-16T01:27:50;99672.25;;;4.79;100.00
54978;BME280;40873;47.522;19.106;2023-01-16T01:30:17;99669.72;;;4.78;100.00
54978;BME280;40873;47.522;19.106;2023-01-16T01:32:44;99666.47;;;4.73;100.00
54978;BME280;40873;47.522;19.106;2023-01-16T01:35:11;99654.97;;;4.77;100.00
54978;BME280;40873;47.522;19.106;2023-01-16T01:37:38;99647.13;;;4.77;100.00
54978;BME280;40873;47.522;19.106;2023-01-16T01:40:06;99636.59;;;4.78;100.00
54978;BME280;40873;47.522;19.106;2023-01-16T01:42:40;99619.16;;;4.79;100.00
54978;BME280;40873;47.522;19.106;2023-01-16T01:47:45;99646.38;;;4.75;100.00
54978;BME280;40873;47.522;19.106;2023-01-16T01:50:36;99646.56;;;4.70;100.00
54978;BME280;40873;47.522;19.106;2023-01-16T01:53:13;99640.34;;;4.73;100.00
54978;BME280;40873;47.522;19.106;2023-01-16T01:55:45;99653.72;;;4.66;100.00
54978;BME280;40873;47.522;19.106;2023-01-16T01:58:14;99658.13;;;4.66;100.00
54978;BME280;40873;47.522;19.106;2023-01-16T02:00:52;99657.31;;;4.64;100.00
54978;BME280;40873;47.522;19.106;2023-01-16T02:03:47;99647.59;;;4.67;100.00
54978;BME280;40873;47.522;19.106;2023-01-16T02:06:20;99637.22;;;4.66;100.00
54978;BME280;40873;47.522;19.106;2023-01-16T02:08:50;99651.88;;;4.68;100.00
54978;BME280;40873;47.522;19.106;2023-01-16T02:11:34;99642.06;;;4.74;100.00
54978;BME280;40873;47.522;19.106;2023-01-16T02:14:08;99635.75;;;4.78;100.00
54978;BME280;40873;47.522;19.106;2023-01-16T02:16:36;99631.47;;;4.77;100.00
54978;BME280;40873;47.522;19.106;2023-01-16T02:36:15;99601.81;;;4.95;100.00
54978;BME280;40873;47.522;19.106;2023-01-16T02:39:07;99606.75;;;5.01;100.00
54978;BME280;40873;47.522;19.106;2023-01-16T02:41:48;99598.97;;;5.00;100.00
54978;BME280;40873;47.522;19.106;2023-01-16T02:47:22;99598.66;;;5.06;100.00
54978;BME280;40873;47.522;19.106;2023-01-16T02:53:14;99589.22;;;5.03;100.00
54978;BME280;40873;47.522;19.106;2023-01-16T02:55:47;99593.44;;;5.06;100.00
54978;BME280;40873;47.522;19.106;2023-01-16T02:58:18;99597.06;;;5.03;100.00
54978;BME280;40873;47.522;19.106;2023-01-16T03:00:53;99580.63;;;5.01;100.00
54978;BME280;40873;47.522;19.106;2023-01-16T03:03:36;99584.84;;;5.04;100.00
54978;BME280;40873;47.522;19.106;2023-01-16T03:12:13;99574.69;;;4.98;100.00
54978;BME280;40873;47.522;19.106;2023-01-16T03:14:55;99558.78;;;5.02;100.00
54978;BME280;40873;47.522;19.106;2023-01-16T03:20:52;99532.00;;;4.97;100.00
54978;BME280;40873;47.522;19.106;2023-01-16T03:23:30;99523.53;;;4.92;100.00
54978;BME280;40873;47.522;19.106;2023-01-16T03:26:04;99533.16;;;4.91;100.00
54978;BME280;40873;47.522;19.106;2023-01-16T03:36:37;99518.31;;;4.92;100.00
54978;BME280;40873;47.522;19.106;2023-01-16T03:39:08;99526.31;;;4.89;100.00
54978;BME280;40873;47.522;19.106;2023-01-16T03:41:38;99517.94;;;4.82;100.00
54978;BME280;40873;47.522;19.106;2023-01-16T03:44:19;99518.56;;;4.87;100.00
54978;BME280;40873;47.522;19.106;2023-01-16T03:46:51;99501.16;;;4.86;100.00
54978;BME280;40873;47.522;19.106;2023-01-16T03:49:20;99500.94;;;4.91;100.00
54978;BME280;40873;47.522;19.106;2023-01-16T03:51:52;99502.03;;;4.87;100.00
54978;BME280;40873;47.522;19.106;2023-01-16T03:57:10;99490.34;;;4.77;100.00
54978;BME280;40873;47.522;19.106;2023-01-16T03:59:41;99493.25;;;4.71;100.00
54978;BME280;40873;47.522;19.106;2023-01-16T04:05:01;99478.72;;;4.65;100.00
54978;BME280;40873;47.522;19.106;2023-01-16T04:07:44;99482.81;;;4.71;100.00
54978;BME280;40873;47.522;19.106;2023-01-16T04:10:16;99472.66;;;4.64;100.00
54978;BME280;40873;47.522;19.106;2023-01-16T04:12:51;99468.44;;;4.62;100.00
54978;BME280;40873;47.522;19.106;2023-01-16T04:15:21;99463.13;;;4.63;100.00
54978;BME280;40873;47.522;19.106;2023-01-16T04:17:50;99466.28;;;4.70;100.00
54978;BME280;40873;47.522;19.106;2023-01-16T04:20:18;99454.31;;;4.66;100.00
54978;BME280;40873;47.522;19.106;2023-01-16T04:22:49;99450.28;;;4.59;100.00
54978;BME280;40873;47.522;19.106;2023-01-16T04:25:19;99451.94;;;4.61;100.00
54978;BME280;40873;47.522;19.106;2023-01-16T04:27:46;99439.09;;;4.57;100.00
54978;BME280;40873;47.522;19.106;2023-01-16T04:30:13;99436.78;;;4.51;100.00
54978;BME280;40873;47.522;19.106;2023-01-16T04:32:42;99433.94;;;4.55;100.00
54978;BME280;40873;47.522;19.106;2023-01-16T04:35:10;99430.50;;;4.55;100.00
54978;BME280;40873;47.522;19.106;2023-01-16T04:37:37;99421.25;;;4.65;100.00
54978;BME280;40873;47.522;19.106;2023-01-16T04:40:04;99428.34;;;4.63;100.00
54978;BME280;40873;47.522;19.106;2023-01-16T04:42:31;99424.13;;;4.60;100.00
54978;BME280;40873;47.522;19.106;2023-01-16T04:44:58;99433.56;;;4.63;100.00
54978;BME280;40873;47.522;19.106;2023-01-16T04:47:25;99432.00;;;4.59;100.00
54978;BME280;40873;47.522;19.106;2023-01-16T04:49:52;99423.66;;;4.52;100.00
54978;BME280;40873;47.522;19.106;2023-01-16T04:52:19;99420.25;;;4.50;100.00
54978;BME280;40873;47.522;19.106;2023-01-16T04:54:46;99414.44;;;4.45;100.00
54978;BME280;40873;47.522;19.106;2023-01-16T04:57:13;99416.91;;;4.48;100.00
54978;BME280;40873;47.522;19.106;2023-01-16T04:59:40;99409.72;;;4.52;100.00
54978;BME280;40873;47.522;19.106;2023-01-16T05:02:07;99408.75;;;4.54;100.00
54978;BME280;40873;47.522;19.106;2023-01-16T05:04:34;99406.38;;;4.50;100.00
54978;BME280;40873;47.522;19.106;2023-01-16T05:07:01;99400.59;;;4.60;100.00
54978;BME280;40873;47.522;19.106;2023-01-16T05:09:28;99402.53;;;4.57;100.00
54978;BME280;40873;47.522;19.106;2023-01-16T05:11:55;99401.97;;;4.50;100.00
54978;BME280;40873;47.522;19.106;2023-01-16T05:14:22;99392.63;;;4.46;100.00
54978;BME280;40873;47.522;19.106;2023-01-16T05:16:49;99393.78;;;4.40;100.00
54978;BME280;40873;47.522;19.106;2023-01-16T05:19:16;99385.78;;;4.44;100.00
54978;BME280;40873;47.522;19.106;2023-01-16T05:21:43;99379.78;;;4.42;100.00
54978;BME280;40873;47.522;19.106;2023-01-16T05:24:10;99382.41;;;4.42;100.00
54978;BME280;40873;47.522;19.106;2023-01-16T05:26:37;99391.91;;;4.43;100.00
54978;BME280;40873;47.522;19.106;2023-01-16T05:29:04;99393.59;;;4.44;100.00
54978;BME280;40873;47.522;19.106;2023-01-16T05:31:31;99392.63;;;4.46;100.00
54978;BME280;40873;47.522;19.106;2023-01-16T05:33:58;99380.63;;;4.42;100.00
54978;BME280;40873;47.522;19.106;2023-01-16T05:36:25;99386.06;;;4.37;100.00
54978;BME280;40873;47.522;19.106;2023-01-16T05:38:52;99398.00;;;4.43;100.00
54978;BME280;40873;47.522;19.106;2023-01-16T05:41:20;99395.84;;;4.34;100.00
54978;BME280;40873;47.522;19.106;2023-01-16T05:43:47;99393.25;;;4.34;100.00
54978;BME280;40873;47.522;19.106;2023-01-16T05:46:14;99394.28;;;4.30;100.00
54978;BME280;40873;47.522;19.106;2023-01-16T05:48:41;99395.75;;;4.35;100.00
54978;BME280;40873;47.522;19.106;2023-01-16T05:51:08;99395.84;;;4.34;100.00
54978;BME280;40873;47.522;19.106;2023-01-16T05:53:35;99389.69;;;4.35;100.00
54978;BME280;40873;47.522;19.106;2023-01-16T05:56:09;99388.63;;;4.39;100.00
54978;BME280;40873;47.522;19.106;2023-01-16T05:58:37;99389.53;;;4.38;100.00
54978;BME280;40873;47.522;19.106;2023-01-16T06:01:04;99395.38;;;4.43;100.00
54978;BME280;40873;47.522;19.106;2023-01-16T06:03:31;99396.47;;;4.39;100.00
54978;BME280;40873;47.522;19.106;2023-01-16T06:06:01;99398.00;;;4.43;100.00
54978;BME280;40873;47.522;19.106;2023-01-16T06:08:28;99404.13;;;4.42;100.00
54978;BME280;40873;47.522;19.106;2023-01-16T06:10:56;99397.31;;;4.39;100.00
54978;BME280;40873;47.522;19.106;2023-01-16T06:13:24;99390.16;;;4.43;100.00
54978;BME280;40873;47.522;19.106;2023-01-16T06:15:50;99387.63;;;4.42;100.00
54978;BME280;40873;47.522;19.106;2023-01-16T06:18:18;99397.84;;;4.46;100.00
54978;BME280;40873;47.522;19.106;2023-01-16T06:20:46;99392.00;;;4.41;100.00
54978;BME280;40873;47.522;19.106;2023-01-16T06:23:13;99392.75;;;4.43;100.00
54978;BME280;40873;47.522;19.106;2023-01-16T06:25:40;99393.91;;;4.37;100.00
54978;BME280;40873;47.522;19.106;2023-01-16T06:28:07;99391.16;;;4.40;100.00
54978;BME280;40873;47.522;19.106;2023-01-16T06:30:34;99379.56;;;4.46;100.00
54978;BME280;40873;47.522;19.106;2023-01-16T06:33:01;99372.66;;;4.45;100.00
54978;BME280;40873;47.522;19.106;2023-01-16T06:35:28;99371.56;;;4.49;100.00
54978;BME280;40873;47.522;19.106;2023-01-16T06:37:55;99372.72;;;4.44;100.00
54978;BME280;40873;47.522;19.106;2023-01-16T06:40:22;99369.34;;;4.42;100.00
54978;BME280;40873;47.522;19.106;2023-01-16T06:42:49;99362.34;;;4.42;100.00
54978;BME280;40873;47.522;19.106;2023-01-16T06:45:16;99359.22;;;4.53;100.00
54978;BME280;40873;47.522;19.106;2023-01-16T06:47:43;99360.19;;;4.50;100.00
54978;BME280;40873;47.522;19.106;2023-01-16T06:50:10;99355.91;;;4.49;100.00
54978;BME280;40873;47.522;19.106;2023-01-16T06:52:37;99348.22;;;4.46;100.00
54978;BME280;40873;47.522;19.106;2023-01-16T06:55:06;99350.75;;;4.48;100.00
54978;BME280;40873;47.522;19.106;2023-01-16T06:57:35;99359.75;;;4.42;100.00
54978;BME280;40873;47.522;19.106;2023-01-16T07:00:03;99356.28;;;4.42;100.00
54978;BME280;40873;47.522;19.106;2023-01-16T07:02:31;99350.59;;;4.51;100.00
54978;BME280;40873;47.522;19.106;2023-01-16T07:04:58;99364.03;;;4.43;100.00
54978;BME280;40873;47.522;19.106;2023-01-16T07:07:25;99367.50;;;4.44;100.00
54978;BME280;40873;47.522;19.106;2023-01-16T07:09:52;99359.75;;;4.42;100.00
54978;BME280;40873;47.522;19.106;2023-01-16T07:12:19;99361.34;;;4.45;100.00
54978;BME280;40873;47.522;19.106;2023-01-16T07:14:46;99341.53;;;4.40;100.00
54978;BME280;40873;47.522;19.106;2023-01-16T07:17:32;99358.97;;;4.40;100.00
54978;BME280;40873;47.522;19.106;2023-01-16T07:20:34;99361.44;;;4.43;100.00
54978;BME280;40873;47.522;19.106;2023-01-16T07:23:29;99353.59;;;4.43;100.00
54978;BME280;40873;47.522;19.106;2023-01-16T07:26:00;99362.88;;;4.49;100.00
54978;BME280;40873;47.522;19.106;2023-01-16T07:28:28;99358.19;;;4.55;100.00
54978;BME280;40873;47.522;19.106;2023-01-16T07:30:56;99354.03;;;4.51;100.00
54978;BME280;40873;47.522;19.106;2023-01-16T07:33:24;99350.59;;;4.51;100.00
54978;BME280;40873;47.522;19.106;2023-01-16T07:35:51;99352.28;;;4.52;100.00
54978;BME280;40873;47.522;19.106;2023-01-16T07:38:18;99348.81;;;4.51;100.00
54978;BME280;40873;47.522;19.106;2023-01-16T07:40:45;99344.38;;;4.53;100.00
54978;BME280;40873;47.522;19.106;2023-01-16T07:43:12;99344.97;;;4.58;100.00
54978;BME280;40873;47.522;19.106;2023-01-16T07:45:39;99335.22;;;4.62;100.00
54978;BME280;40873;47.522;19.106;2023-01-16T07:48:06;99328.22;;;4.62;100.00
54978;BME280;40873;47.522;19.106;2023-01-16T07:50:33;99320.22;;;4.65;100.00
54978;BME280;40873;47.522;19.106;2023-01-16T07:53:00;99312.72;;;4.59;100.00
54978;BME280;40873;47.522;19.106;2023-01-16T07:55:27;99310.16;;;4.58;100.00
54978;BME280;40873;47.522;19.106;2023-01-16T07:57:54;99307.41;;;4.61;100.00
54978;BME280;40873;47.522;19.106;2023-01-16T08:00:21;99304.78;;;4.61;100.00
54978;BME280;40873;47.522;19.106;2023-01-16T08:02:49;99296.03;;;4.62;100.00
54978;BME280;40873;47.522;19.106;2023-01-16T08:05:16;99287.19;;;4.64;100.00
54978;BME280;40873;47.522;19.106;2023-01-16T08:07:44;99281.19;;;4.62;100.00
54978;BME280;40873;47.522;19.106;2023-01-16T08:10:13;99277.13;;;4.57;100.00
54978;BME280;40873;47.522;19.106;2023-01-16T08:12:40;99275.28;;;4.59;100.00
54978;BME280;40873;47.522;19.106;2023-01-16T08:15:07;99259.16;;;4.51;100.00
54978;BME280;40873;47.522;19.106;2023-01-16T08:17:38;99253.94;;;4.51;100.00
54978;BME280;40873;47.522;19.106;2023-01-16T08:20:06;99242.56;;;4.52;100.00
54978;BME280;40873;47.522;19.106;2023-01-16T08:22:33;99235.25;;;4.58;100.00
54978;BME280;40873;47.522;19.106;2023-01-16T08:25:00;99239.22;;;4.65;100.00
54978;BME280;40873;47.522;19.106;2023-01-16T08:27:27;99232.81;;;4.71;100.00
54978;BME280;40873;47.522;19.106;2023-01-16T08:29:54;99237.06;;;4.74;100.00
54978;BME280;40873;47.522;19.106;2023-01-16T08:32:21;99221.22;;;4.77;100.00
54978;BME280;40873;47.522;19.106;2023-01-16T08:34:48;99226.44;;;4.77;100.00
54978;BME280;40873;47.522;19.106;2023-01-16T08:37:15;99224.66;;;4.77;100.00
54978;BME280;40873;47.522;19.106;2023-01-16T08:39:42;99221.22;;;4.77;100.00
54978;BME280;40873;47.522;19.106;2023-01-16T08:42:09;99220.47;;;4.75;100.00
54978;BME280;40873;47.522;19.106;2023-01-16T08:44:56;99206.13;;;4.82;100.00
54978;BME280;40873;47.522;19.106;2023-01-16T08:47:44;99193.06;;;4.82;100.00
54978;BME280;40873;47.522;19.106;2023-01-16T08:50:29;99195.81;;;4.79;100.00
54978;BME280;40873;47.522;19.106;2023-01-16T08:53:15;99186.41;;;4.76;100.00
54978;BME280;40873;47.522;19.106;2023-01-16T08:55:42;99181.59;;;4.68;100.00
54978;BME280;40873;47.522;19.106;2023-01-16T08:58:09;99178.28;;;4.65;100.00
54978;BME280;40873;47.522;19.106;2023-01-16T09:00:36;99176.53;;;4.65;100.00
54978;BME280;40873;47.522;19.106;2023-01-16T09:03:04;99159.44;;;4.60;100.00
54978;BME280;40873;47.522;19.106;2023-01-16T09:05:30;99155.28;;;4.72;100.00
54978;BME280;40873;47.522;19.106;2023-01-16T09:07:57;99161.28;;;4.74;100.00
54978;BME280;40873;47.522;19.106;2023-01-16T09:10:25;99149.31;;;4.70;100.00
54978;BME280;40873;47.522;19.106;2023-01-16T09:12:52;99144.00;;;4.71;100.00
54978;BME280;40873;47.522;19.106;2023-01-16T09:15:38;99135.91;;;4.76;100.00
54978;BME280;40873;47.522;19.106;2023-01-16T09:18:05;99119.50;;;4.74;100.00
54978;BME280;40873;47.522;19.106;2023-01-16T09:20:32;99118.81;;;4.70;100.00
54978;BME280;40873;47.522;19.106;2023-01-16T09:23:01;99110.81;;;4.73;100.00
54978;BME280;40873;47.522;19.106;2023-01-16T09:25:30;99106.97;;;4.79;100.00
54978;BME280;40873;47.522;19.106;2023-01-16T09:27:58;99113.56;;;4.86;100.00
54978;BME280;40873;47.522;19.106;2023-01-16T09:30:26;99096.28;;;4.83;100.00
54978;BME280;40873;47.522;19.106;2023-01-16T09:32:54;99083.13;;;4.85;100.00
54978;BME280;40873;47.522;19.106;2023-01-16T09:35:21;99077.56;;;4.91;100.00
54978;BME280;40873;47.522;19.106;2023-01-16T09:37:48;99076.81;;;4.89;100.00
54978;BME280;40873;47.522;19.106;2023-01-16T09:40:20;99068.03;;;4.90;100.00
54978;BME280;40873;47.522;19.106;2023-01-16T09:42:57;99058.06;;;4.97;100.00
54978;BME280;40873;47.522;19.106;2023-01-16T09:45:45;99053.59;;;4.99;100.00
54978;BME280;40873;47.522;19.106;2023-01-16T09:48:23;99039.03;;;4.94;100.00
54978;BME280;40873;47.522;19.106;2023-01-16T09:50:53;99027.50;;;4.83;100.00
54978;BME280;40873;47.522;19.106;2023-01-16T09:53:49;99023.41;;;4.93;100.00
54978;BME280;40873;47.522;19.106;2023-01-16T09:56:38;99023.59;;;4.90;100.00
54978;BME280;40873;47.522;19.106;2023-01-16T09:59:53;99009.13;;;4.84;100.00
54978;BME280;40873;47.522;19.106;2023-01-16T10:04:56;99002.88;;;4.87;100.00
54978;BME280;40873;47.522;19.106;2023-01-16T10:12:34;98984.53;;;4.73;100.00
54978;BME280;40873;47.522;19.106;2023-01-16T10:15:24;98984.38;;;4.76;100.00
54978;BME280;40873;47.522;19.106;2023-01-16T10:18:20;98972.88;;;4.78;100.00
54978;BME280;40873;47.522;19.106;2023-01-16T10:26:42;98952.78;;;4.94;100.00
54978;BME280;40873;47.522;19.106;2023-01-16T10:29:25;98950.63;;;4.87;100.00
54978;BME280;40873;47.522;19.106;2023-01-16T10:37:16;98929.63;;;5.03;100.00
54978;BME280;40873;47.522;19.106;2023-01-16T10:39:44;98922.91;;;4.99;100.00
54978;BME280;40873;47.522;19.106;2023-01-16T10:42:17;98929.06;;;4.98;100.00
54978;BME280;40873;47.522;19.106;2023-01-16T10:47:51;98910.78;;;5.12;100.00
54978;BME280;40873;47.522;19.106;2023-01-16T10:50:37;98917.78;;;4.97;100.00
54978;BME280;40873;47.522;19.106;2023-01-16T10:53:06;98907.59;;;4.92;100.00
54978;BME280;40873;47.522;19.106;2023-01-16T10:55:34;98891.84;;;4.94;100.00
54978;BME280;40873;47.522;19.106;2023-01-16T10:58:24;98886.50;;;4.95;100.00
54978;BME280;40873;47.522;19.106;2023-01-16T11:01:05;98885.09;;;4.90;100.00
54978;BME280;40873;47.522;19.106;2023-01-16T11:03:39;98870.34;;;4.89;100.00
54978;BME280;40873;47.522;19.106;2023-01-16T11:06:10;98866.53;;;4.94;100.00
54978;BME280;40873;47.522;19.106;2023-01-16T11:08:39;98865.13;;;5.03;100.00
54978;BME280;40873;47.522;19.106;2023-01-16T11:11:09;98846.56;;;5.08;100.00
54978;BME280;40873;47.522;19.106;2023-01-16T11:13:57;98850.00;;;5.08;100.00
54978;BME280;40873;47.522;19.106;2023-01-16T11:16:43;98842.63;;;5.15;100.00
54978;BME280;40873;47.522;19.106;2023-01-16T11:19:40;98835.78;;;5.12;100.00
54978;BME280;40873;47.522;19.106;2023-01-16T11:22:25;98829.56;;;5.15;100.00
54978;BME280;40873;47.522;19.106;2023-01-16T11:24:56;98819.94;;;5.15;100.00
54978;BME280;40873;47.522;19.106;2023-01-16T11:27:33;98824.69;;;5.23;100.00
54978;BME280;40873;47.522;19.106;2023-01-16T11:30:02;98818.16;;;5.16;100.00
54978;BME280;40873;47.522;19.106;2023-01-16T11:32:30;98797.97;;;5.18;100.00
54978;BME280;40873;47.522;19.106;2023-01-16T11:35:02;98795.94;;;5.23;100.00
54978;BME280;40873;47.522;19.106;2023-01-16T11:37:29;98796.75;;;5.23;100.00
54978;BME280;40873;47.522;19.106;2023-01-16T11:39:59;98791.63;;;5.22;100.00
54978;BME280;40873;47.522;19.106;2023-01-16T11:42:28;98785.94;;;5.15;100.00
54978;BME280;40873;47.522;19.106;2023-01-16T11:45:18;98772.13;;;5.13;100.00
54978;BME280;40873;47.522;19.106;2023-01-16T11:48:07;98773.63;;;5.17;100.00
54978;BME280;40873;47.522;19.106;2023-01-16T11:50:56;98766.38;;;5.08;100.00
54978;BME280;40873;47.522;19.106;2023-01-16T11:53:32;98761.59;;;5.01;100.00
54978;BME280;40873;47.522;19.106;2023-01-16T11:56:08;98754.78;;;4.98;100.00
54978;BME280;40873;47.522;19.106;2023-01-16T11:58:45;98756.28;;;5.02;100.00
54978;BME280;40873;47.522;19.106;2023-01-16T12:01:26;98736.03;;;4.91;100.00
54978;BME280;40873;47.522;19.106;2023-01-16T12:04:19;98738.47;;;4.94;100.00
54978;BME280;40873;47.522;19.106;2023-01-16T12:15:08;98697.50;;;4.95;100.00
54978;BME280;40873;47.522;19.106;2023-01-16T12:21:01;98687.53;;;4.87;100.00
54978;BME280;40873;47.522;19.106;2023-01-16T12:23:41;98669.63;;;4.81;100.00
54978;BME280;40873;47.522;19.106;2023-01-16T12:26:26;98669.81;;;4.78;100.00
54978;BME280;40873;47.522;19.106;2023-01-16T12:29:08;98666.38;;;4.78;100.00
54978;BME280;40873;47.522;19.106;2023-01-16T12:34:57;98658.19;;;4.97;100.00
54978;BME280;40873;47.522;19.106;2023-01-16T12:40:56;98651.78;;;4.88;100.00
54978;BME280;40873;47.522;19.106;2023-01-16T12:52:11;98619.53;;;4.75;100.00
54978;BME280;40873;47.522;19.106;2023-01-16T13:00:23;98614.31;;;4.75;100.00
54978;BME280;40873;47.522;19.106;2023-01-16T13:03:03;98610.94;;;4.73;100.00
54978;BME280;40873;47.522;19.106;2023-01-16T13:05:38;98612.94;;;4.69;100.00
54978;BME280;40873;47.522;19.106;2023-01-16T13:10:52;98612.09;;;4.68;100.00
54978;BME280;40873;47.522;19.106;2023-01-16T13:13:50;98604.59;;;4.77;100.00
54978;BME280;40873;47.522;19.106;2023-01-16T13:16:34;98601.25;;;4.75;100.00
54978;BME280;40873;47.522;19.106;2023-01-16T13:19:16;98588.69;;;4.67;100.00
54978;BME280;40873;47.522;19.106;2023-01-16T13:24:30;98576.81;;;4.76;100.00
54978;BME280;40873;47.522;19.106;2023-01-16T13:27:01;98576.25;;;4.71;100.00
54978;BME280;40873;47.522;19.106;2023-01-16T13:29:39;98581.88;;;4.64;100.00
54978;BME280;40873;47.522;19.106;2023-01-16T13:35:17;98576.97;;;4.73;100.00
54978;BME280;40873;47.522;19.106;2023-01-16T13:37:54;98580.19;;;4.63;100.00
54978;BME280;40873;47.522;19.106;2023-01-16T13:43:08;98578.63;;;4.61;100.00
54978;BME280;40873;47.522;19.106;2023-01-16T13:45:57;98574.13;;;4.63;100.00
54978;BME280;40873;47.522;19.106;2023-01-16T13:48:33;98569.75;;;4.63;100.00
54978;BME280;40873;47.522;19.106;2023-01-16T13:51:13;98576.75;;;4.63;100.00
54978;BME280;40873;47.522;19.106;2023-01-16T13:53:44;98577.53;;;4.51;100.00
54978;BME280;40873;47.522;19.106;2023-01-16T13:56:19;98581.53;;;4.56;100.00
54978;BME280;40873;47.522;19.106;2023-01-16T13:59:24;98569.19;;;4.58;100.00
54978;BME280;40873;47.522;19.106;2023-01-16T14:01:55;98569.19;;;4.58;100.00
54978;BME280;40873;47.522;19.106;2023-01-16T14:04:25;98568.03;;;4.50;100.00
54978;BME280;40873;47.522;19.106;2023-01-16T14:06:57;98563.34;;;4.55;100.00
54978;BME280;40873;47.522;19.106;2023-01-16T14:12:41;98557.97;;;4.71;100.00
54978;BME280;40873;47.522;19.106;2023-01-16T14:15:23;98551.19;;;4.68;100.00
54978;BME280;40873;47.522;19.106;2023-01-16T14:18:19;98544.25;;;4.54;100.00
54978;BME280;40873;47.522;19.106;2023-01-16T14:23:25;98533.06;;;4.52;100.00
54978;BME280;40873;47.522;19.106;2023-01-16T14:29:21;98524.47;;;4.50;100.00
54978;BME280;40873;47.522;19.106;2023-01-16T14:34:50;98502.44;;;4.54;100.00
54978;BME280;40873;47.522;19.106;2023-01-16T14:37:38;98500.47;;;4.58;100.00
54978;BME280;40873;47.522;19.106;2023-01-16T14:42:52;98491.34;;;4.51;100.00
54978;BME280;40873;47.522;19.106;2023-01-16T14:45:40;98490.72;;;4.47;100.00
54978;BME280;40873;47.522;19.106;2023-01-16T14:48:35;98484.13;;;4.42;100.00
54978;BME280;40873;47.522;19.106;2023-01-16T14:54:20;98474.81;;;4.37;100.00
54978;BME280;40873;47.522;19.106;2023-01-16T14:57:19;98475.75;;;4.36;100.00
54978;BME280;40873;47.522;19.106;2023-01-16T14:59:58;98466.53;;;4.31;100.00
54978;BME280;40873;47.522;19.106;2023-01-16T15:02:30;98471.06;;;4.42;100.00
54978;BME280;40873;47.522;19.106;2023-01-16T15:05:21;98466.88;;;4.66;100.00
54978;BME280;40873;47.522;19.106;2023-01-16T15:07:59;98462.63;;;4.51;100.00
54978;BME280;40873;47.522;19.106;2023-01-16T15:10:39;98454.34;;;4.44;100.00
54978;BME280;40873;47.522;19.106;2023-01-16T15:15:49;98444.31;;;4.38;100.00
54978;BME280;40873;47.522;19.106;2023-01-16T15:18:18;98440.19;;;4.48;100.00
54978;BME280;40873;47.522;19.106;2023-01-16T15:21:13;98436.19;;;4.43;100.00
54978;BME280;40873;47.522;19.106;2023-01-16T15:24:00;98430.34;;;4.39;100.00
54978;BME280;40873;47.522;19.106;2023-01-16T15:31:58;98415.69;;;4.36;100.00
54978;BME280;40873;47.522;19.106;2023-01-16T15:34:31;98415.66;;;4.24;100.00
54978;BME280;40873;47.522;19.106;2023-01-16T15:36:58;98431.38;;;4.09;100.00
54978;BME280;40873;47.522;19.106;2023-01-16T15:44:51;98400.47;;;4.43;100.00